Statewide Weather Sensors

Route Weather Station Name Milepost Date / Time Surface Status Surface Temp Precip Intensity Wind Avg Wind Gust Dir Dewpoint Humidity Air Temp Visibility
I 25 Wyo Hill 3.52 Feb 19, 2019 01:48 pm     Snow None 4 mph 7 mph S 10.4°F 78% 15.8°F > 1/2 mi
I 25 Whitaker 30.2 Feb 19, 2019 01:49 pm Dry 41.0°F None None 7 mph 11 mph NE 14.0°F 79% 19.4°F > 1/2 mi
I 25 Bear Creek 46.77 Feb 19, 2019 01:48 pm Dry 46.4°F None None 6 mph 12 mph NW 6.8°F 59% 19.4°F > 1/2 mi
I 25 Bordeaux 70.8 Feb 19, 2019 01:48 pm Dry 50.0°F None None 4 mph 8 mph E 8.6°F 59% 19.4°F > 1/2 mi
I 25 Coleman 98.7 Feb 19, 2019 01:48 pm N/A   None   1 mph 7 mph N 10.4°F 64% 19.4°F  
I 25 Platte/Converse County Line 119.9 Feb 19, 2019 01:48 pm Dry 39.2°F None None 6 mph 6 mph NW 32.0°F 55% 5.0°F > 1/2 mi
I 25 Deer Creek 164.2 Feb 19, 2019 01:48 pm Dry 50.0°F None None 2 mph 7 mph N 8.6°F 57% 21.2°F > 1/2 mi
I 25 F Street Hill 189.51 Feb 19, 2019 01:48 pm Dry 33.8°F None None 22 mph 27 mph SW 6.8°F 60% 17.6°F > 1/2 mi
I 25 Twenty Mile Hill 207.2 Feb 19, 2019 01:48 pm N/A   None None 18 mph 22 mph W 6.8°F 62% 17.6°F > 1/2 mi
I 25 I-25 Divide 267.3 Feb 19, 2019 01:48 pm Dry 50.0°F None None 1 mph 6 mph S 5.0°F 48% 21.2°F > 1/2 mi
I 80 Evanston POE .06 Feb 19, 2019 01:48 pm Dry 23.0°F None   1 mph 18 mph SW 5.0°F 73% 12.2°F > 1/2 mi
I 80 Evanston 4.2 Feb 19, 2019 01:48 pm Dry 32.0°F None None 12 mph 17 mph W     12.2°F > 1/2 mi
I 80 Bear River Drive 6.94 Feb 19, 2019 01:48 pm Dry 28.4°F None   1 mph 15 mph W 5.0°F 70% 12.2°F > 1/2 mi
I 80 Painter 10.16 Feb 19, 2019 01:48 pm Dry 39.2°F None None 17 mph 20 mph SW 3.2°F 65% 12.2°F > 1/2 mi
I 80 First Divide 13.86 Feb 19, 2019 01:48 pm N/A   None   18 mph 21 mph W 3.2°F 76% 10.4°F  
I 80 US 189 Interchange 17.66 Feb 19, 2019 01:48 pm Dry 41.0°F None None 14 mph 21 mph SW 5.0°F 66% 14.0°F > 1/2 mi
I 80 Coal Road 20.95 Feb 19, 2019 01:48 pm Dry 42.8°F None None 14 mph 19 mph S 5.0°F 70% 12.2°F > 1/2 mi
I 80 Leroy 23.35 Feb 19, 2019 01:48 pm Dry 42.8°F None None 16 mph 21 mph NW 3.2°F 60% 14.0°F > 1/2 mi
I 80 French 27.6 Feb 19, 2019 01:48 pm Dry 41.0°F None None 17 mph 21 mph W 3.2°F 69% 12.2°F > 1/2 mi
I 80 Church Butte 52.65 Feb 19, 2019 01:48 pm N/A   None None 4 mph 7 mph W 3.2°F 80% 8.6°F > 1/2 mi
I 80 Peru Hill 82.31 Feb 19, 2019 01:48 pm N/A   None   5 mph 6 mph SW -4.0°F 62% 6.8°F  
I 80 Green River Tunnel 90.5 Feb 19, 2019 01:48 pm Dry 41.0°F None   7 mph 13 mph SW -0.4°F 60% 10.4°F  
I 80 Rock Springs West 97.9 Feb 19, 2019 01:48 pm Dry 39.2°F None None 14 mph 17 mph NE 3.2°F 72% 10.4°F > 1/2 mi
I 80 Baxter Road 111.5 Jan 29, 2019 07:34 am                      
I 80 Mile Marker 124.5 124.5 Feb 19, 2019 01:48 pm Dry 46.4°F None None 9 mph 14 mph SW 3.2°F 69% 12.2°F > 1/2 mi
I 80 Point of Rocks 129.8 Feb 19, 2019 01:48 pm Dry 42.8°F None None 11 mph 16 mph W 3.2°F 68% 12.2°F > 1/2 mi
I 80 Bitter Creek 141.83 Feb 19, 2019 01:48 pm Dry 39.2°F None   19 mph 24 mph SW 3.2°F 76% 8.6°F  
I 80 Tipton 156.72 Feb 19, 2019 01:48 pm Dry 39.2°F None None 17 mph 21 mph SW 5.0°F 82% 10.4°F > 1/2 mi
I 80 Continental Divide 184.3 Feb 19, 2019 01:48 pm N/A   None   14 mph 17 mph SW 5.0°F 90% 6.8°F  
I 80 Sinclair 221.7 Feb 19, 2019 01:48 pm N/A   None None 13 mph 18 mph W 3.2°F 72% 10.4°F > 1/2 mi
I 80 Walcott Junction 234.66 Feb 19, 2019 01:48 pm N/A   None None 9 mph 12 mph SW 3.2°F 79% 8.6°F > 1/2 mi
I 80 Dana Ridge 244.8 Feb 19, 2019 01:48 pm Dry 41.0°F None None 17 mph 19 mph E 3.2°F 88% 6.8°F > 1/2 mi
I 80 Mile Marker 249.1 249.1 Feb 19, 2019 01:48 pm Dry 35.6°F None None 20 mph 24 mph W 3.2°F 82% 6.8°F > 1/2 mi
I 80 Halleck Ridge 252.16 Feb 19, 2019 01:48 pm Dry 41.0°F Snow None 27 mph 31 mph SW     5.0°F > 1/2 mi
I 80 Elk Mountain 256.17 Feb 19, 2019 01:48 pm Wet 37.4°F None None 19 mph 24 mph N 3.2°F 68% 12.2°F > 1/2 mi
I 80 County Road 402 262 Feb 19, 2019 01:48 pm Dry 46.4°F None None 16 mph 22 mph W 1.4°F 53% 15.8°F > 1/2 mi
I 80 Wagonhound 266.58 Feb 19, 2019 01:48 pm Dry 41.0°F None None 21 mph 27 mph SW 3.2°F 69% 12.2°F > 1/2 mi
I 80 Foote Creek 269.5 Feb 19, 2019 01:48 pm Dry 46.4°F None None 17 mph 21 mph W 3.2°F 68% 12.2°F > 1/2 mi
I 80 Arlington 271.8 Feb 19, 2019 01:48 pm Dry 42.8°F None None 17 mph 24 mph W 3.2°F 52% 17.6°F > 1/2 mi
I 80 Arlington East 273.85 Feb 19, 2019 01:48 pm Dry 48.2°F None None 14 mph 19 mph W 1.4°F 53% 15.8°F > 1/2 mi
I 80 Cooper Cove 279.36 Jan 30, 2019 07:50 am                      
I 80 Strouss Hill 283.75 Feb 19, 2019 01:48 pm Trace Moisture 41.0°F None None 6 mph 9 mph S 8.6°F 89% 10.4°F > 1/2 mi
I 80 Quealy Dome 289.5 Feb 19, 2019 01:48 pm Dry 37.4°F None None 3 mph 6 mph SE 6.8°F 74% 14.0°F > 1/2 mi
I 80 Herrick Lane 297.66 Feb 19, 2019 01:48 pm Dry 41.0°F Snow None 27 mph 31 mph SW     5.0°F > 1/2 mi
I 80 Summit East 325.8 Feb 19, 2019 01:48 pm Dry 41.0°F None None 9 mph 12 mph W 6.8°F 91% 8.6°F > 1/2 mi
I 80 Vedauwoo 329.4 Feb 19, 2019 01:48 pm Trace Moisture 35.6°F Snow Slight 9 mph 12 mph NW 8.6°F 82% 14.0°F  
I 80 Lone Tree 333.32 Feb 19, 2019 01:48 pm N/A   Snow Slight 1 mph 3 mph E 8.6°F 86% 12.2°F > 1/2 mi
I 80 Buford East 336.1 Feb 19, 2019 01:48 pm Trace Moisture 41.0°F Snow None 6 mph 6 mph SE 8.6°F 89% 10.4°F > 1/2 mi
I 80 Remount Road 340.5 Feb 19, 2019 01:48 pm N/A   None None 5 mph 6 mph NE 12.2°F 91% 14.0°F > 1/2 mi
I 80 Otto 347.69 Feb 19, 2019 01:48 pm N/A   Snow None 1 mph 5 mph N 10.4°F 92% 14.0°F > 1/2 mi
I 80 MP 353 353 Feb 19, 2019 01:48 pm Dry 41.0°F None None 4 mph 8 mph SE 10.4°F 88% 12.2°F > 1/2 mi
I 80 Cheyenne East 373 Feb 19, 2019 01:48 pm Wet 35.6°F Snow None 7 mph 9 mph S 8.6°F 78% 14.0°F > 1/2 mi
I 90 Montana State Line .1 Feb 19, 2019 01:48 pm Dry 44.6°F None None 9 mph 10 mph E -0.4°F 46% 17.6°F > 1/2 mi
I 90 Pompey Creek 35.3 Feb 19, 2019 01:48 pm N/A   None None 2 mph 3 mph SE   51% 3.2°F > 1/2 mi
I 90 Piney Creek Interchange 44.7 Feb 19, 2019 01:48 pm Dry 32.0°F None None 4 mph 4 mph W 3.2°F 52% 17.6°F > 1/2 mi
I 90 Kearny Divide 45.33 Feb 19, 2019 01:48 pm Dry   None None 4 mph 5 mph SE   48% 3.2°F > 1/2 mi
I 90 Indian Creek Road 83.3 Feb 19, 2019 01:48 pm Dry 51.8°F None None 1 mph 6 mph NE 5.0°F 50% 21.2°F > 1/2 mi
I 90 Dead Horse 91.5 Feb 19, 2019 01:48 pm Dry 50.0°F None None 3 mph 5 mph NW 1.4°F 28% 30.2°F > 1/2 mi
I 90 Mile Marker 108 108 Feb 19, 2019 01:48 pm N/A   None None 4 mph 6 mph S 6.8°F 63% 17.6°F > 1/2 mi
I 90 Inyan Kara 170.5 Feb 19, 2019 01:48 pm N/A 32.0°F None   12 mph 14 mph S 5.0°F 70% 14.0°F  
I 90 Beulah 205.9 Feb 19, 2019 01:48 pm Dry 28.4°F None None 4 mph 7 mph E 1.4°F 74% 8.6°F > 1/2 mi
US 14 Ucross 27.83 Feb 19, 2019 01:48 pm Dry 41.0°F None None 6 mph 9 mph N -0.4°F 35% 23.0°F N/A
US 14 Granite Pass 38.95 Feb 19, 2019 01:48 pm N/A 3.2°F None None 9 mph 11 mph NE -11.2°F 33% 12.2°F N/A
US 16 Big Horn County Line 44.01 Feb 19, 2019 01:48 pm Dry 37.4°F None None 6 mph 10 mph S -4.0°F 42% 14.0°F > 1/2 mi
US 189 Rim US 191 127 Feb 19, 2019 01:48 pm Dry 37.4°F None None 9 mph 11 mph W -2.2°F 64% 8.6°F  
US 191 Farson 40.45 Feb 19, 2019 01:48 pm Ice Warning 30.2°F None None 2 mph 4 mph SW -5.8°F 80% -0.4°F > 1/2 mi
US 20 Natrona 30 Feb 19, 2019 01:48 pm Dry 48.2°F None None 10 mph 12 mph SW 5.0°F 56% 17.6°F > 1/2 mi
US 20 Hiland 57.4 Feb 19, 2019 01:48 pm Dry 44.6°F None None 11 mph 17 mph S 5.0°F 58% 17.6°F > 1/2 mi
US 26 Wind River Lake 26.05 Feb 19, 2019 01:48 pm Chemically Wet 6.8°F Snow None 9 mph 12 mph NW -5.8°F 75% -0.4°F > 1/2 mi
US 287 Beaver Rim 48.1 Feb 19, 2019 01:48 pm N/A   None None 13 mph 14 mph SW 6.8°F 85% 10.4°F > 1/2 mi
US 287 Pumpkin Vine 420.4 Feb 19, 2019 01:48 pm Dry 37.4°F Snow None 9 mph 13 mph NW 8.6°F 96% 10.4°F > 1/2 mi
US 30 Sage Junction 34 Feb 19, 2019 01:48 pm N/A   None None 2 mph 3 mph W 1.4°F 66% 10.4°F  
US 30 Nugget Canyon 39.7 Feb 19, 2019 01:48 pm Dry 48.2°F None   7 mph 9 mph W 3.2°F 65% 12.2°F  
US 85 Gun Barrel 46.8 Feb 19, 2019 01:48 pm N/A 33.8°F None None 11 mph 14 mph SW 10.4°F 85% 15.8°F  
WY 120 Meeteetse 61.5 Feb 19, 2019 01:48 pm Dry 50.0°F None   9 mph 14 mph SE 6.8°F 59% 19.4°F  
WY 210 Wildcat Trail 21.52 Feb 19, 2019 01:48 pm Dry 39.2°F None None 9 mph 11 mph S 8.6°F 78% 14.0°F > 1/2 mi
WY 210 Hynds Lodge Road 24.55 Feb 19, 2019 01:48 pm Trace Moisture 42.8°F Snow None 5 mph 9 mph N 10.4°F 89% 14.0°F > 1/2 mi
WY 22 Teton Pass 11.2 Feb 19, 2019 01:48 pm N/A 24.8°F Snow None 5 mph 6 mph SW 8.6°F 66% 19.4°F > 1/2 mi
WY 220 Pathfinder Hill 80.1 Feb 19, 2019 01:48 pm Dry 42.8°F None None 11 mph 13 mph S 3.2°F 63% 14.0°F > 1/2 mi
WY 230 Skyline 230 113.2 Feb 19, 2019 01:48 pm N/A 30.2°F Snow None 12 mph 16 mph W 6.8°F 96% 6.8°F > 1/2 mi
WY 258 Outer Drive 13.77 Feb 19, 2019 01:48 pm Dry 50.0°F None None 6 mph 7 mph SE 6.8°F 59% 17.6°F > 1/2 mi
WY 28 New South Pass 41.4 Feb 19, 2019 01:48 pm Trace Moisture 32.0°F None None 21 mph 24 mph W -0.4°F 77% 5.0°F > 1/2 mi
WY 28 Red Canyon 59.5 Feb 14, 2019 08:06 am                      
WY 296 Chief Joseph 32.96 Feb 19, 2019 01:48 pm Dry 24.8°F None None 13 mph 19 mph N -4.0°F 50% 10.4°F  
WY 372 Shute Creek 36 Feb 19, 2019 01:48 pm N/A   None None 6 mph 7 mph S 1.4°F 85% 5.0°F  
WY 387 Pine Tree Junction 131.79 Feb 19, 2019 01:48 pm Wet 48.2°F None None 9 mph 14 mph SW 8.6°F 69% 15.8°F > 1/2 mi
WY 487 Shirley Rim 37 Feb 19, 2019 01:49 pm Wet 41.0°F None None 4 mph 5 mph SE 1.4°F 85% 5.0°F > 1/2 mi
WY 59 Belle Fourche 87 Feb 19, 2019 01:48 pm Dry 37.4°F None   7 mph 12 mph S 6.8°F 62% 17.6°F  

Contact Us Copyright 2019 Disclaimer Privacy Policy Media